createdAt,value
2019-05-07T00:01:20.143Z,8.03
2019-05-07T00:06:23.101Z,8.50
2019-05-07T00:11:25.367Z,7.17
2019-05-07T00:16:28.042Z,7.23
2019-05-07T00:21:30.130Z,7.50
2019-05-07T00:26:32.467Z,7.27
2019-05-07T00:31:34.563Z,7.50
2019-05-07T00:37:02.373Z,7.77
2019-05-07T00:42:16.656Z,7.53
2019-05-07T00:47:18.843Z,7.73
2019-05-07T00:52:22.568Z,7.60
2019-05-07T00:57:24.859Z,7.90
2019-05-07T01:02:26.971Z,7.23
2019-05-07T01:07:29.063Z,7.33
2019-05-07T01:12:32.893Z,7.07
2019-05-07T01:17:35.184Z,7.70
2019-05-07T01:22:37.483Z,6.83
2019-05-07T01:27:39.513Z,6.83
2019-05-07T01:32:50.547Z,7.40
2019-05-07T01:37:53.550Z,8.00
2019-05-07T01:42:55.539Z,7.83
2019-05-07T01:47:57.662Z,7.37
2019-05-07T01:52:59.809Z,7.47
2019-05-07T01:58:04.619Z,8.40
2019-05-07T02:03:19.172Z,8.63
2019-05-07T02:08:55.960Z,8.00
2019-05-07T02:13:58.362Z,7.80
2019-05-07T02:19:02.189Z,7.90
2019-05-07T02:24:05.649Z,8.50
2019-05-07T02:29:07.641Z,7.70
2019-05-07T02:34:09.743Z,8.13
2019-05-07T02:39:24.607Z,9.03
2019-05-07T02:44:26.609Z,8.67
2019-05-07T02:49:44.032Z,9.43
2019-05-07T02:55:06.608Z,8.43
2019-05-07T03:00:09.033Z,9.20
2019-05-07T03:05:13.679Z,11.13
2019-05-07T03:10:15.567Z,11.20
2019-05-07T03:15:17.713Z,9.77
2019-05-07T03:20:24.664Z,7.30
2019-05-07T03:25:33.846Z,8.27
2019-05-07T03:30:45.625Z,8.53
2019-05-07T03:35:56.347Z,8.40
2019-05-07T03:40:54.944Z,8.73
2019-05-07T03:46:06.005Z,8.10
2019-05-07T03:51:09.275Z,8.47
2019-05-07T03:56:13.039Z,8.37
2019-05-07T04:01:15.639Z,8.43
2019-05-07T04:06:17.745Z,8.83
2019-05-07T04:11:22.796Z,8.73
2019-05-07T04:16:24.765Z,9.27
2019-05-07T04:21:26.817Z,10.07
2019-05-07T04:26:38.808Z,9.47
2019-05-07T04:31:43.656Z,9.83
2019-05-07T04:36:47.653Z,10.17
2019-05-07T04:41:52.820Z,9.83
2019-05-07T04:46:53.836Z,9.20
2019-05-07T04:52:11.286Z,9.47
2019-05-07T04:57:26.621Z,10.10
2019-05-07T05:03:03.703Z,9.17
2019-05-07T05:08:05.848Z,10.30
2019-05-07T05:13:07.936Z,10.03
2019-05-07T05:18:10.177Z,16.00
2019-05-07T05:23:41.939Z,22.27
2019-05-07T05:28:44.223Z,22.30
2019-05-07T05:33:46.423Z,22.73
2019-05-07T05:38:50.047Z,21.73
2019-05-07T05:49:25.585Z,21.53
2019-05-07T05:54:37.898Z,20.70
2019-05-07T06:00:22.187Z,20.47
2019-05-07T06:05:46.588Z,23.33
2019-05-07T06:10:56.821Z,22.07
2019-05-07T06:16:05.077Z,23.63
2019-05-07T06:21:17.655Z,21.83
2019-05-07T06:26:19.708Z,20.73
2019-05-07T06:31:22.219Z,20.07
2019-05-07T06:36:24.683Z,20.57
2019-05-07T06:41:45.033Z,20.27
2019-05-07T06:46:47.154Z,20.43
2019-05-07T06:51:49.273Z,20.57
2019-05-07T06:56:52.370Z,18.53
2019-05-07T07:02:17.084Z,18.50
2019-05-07T07:07:34.741Z,17.53
2019-05-07T07:12:34.207Z,17.67
2019-05-07T07:17:36.380Z,16.77
2019-05-07T07:22:38.506Z,17.00
2019-05-07T07:27:42.971Z,16.63
2019-05-07T07:32:46.288Z,15.20
2019-05-07T07:37:48.617Z,14.77
2019-05-07T07:42:52.028Z,14.07
2019-05-07T07:47:54.432Z,12.90
2019-05-07T07:52:56.460Z,11.30
2019-05-07T07:58:24.282Z,14.70
2019-05-07T08:03:26.385Z,12.67
2019-05-07T08:08:28.535Z,13.53
2019-05-07T08:13:42.461Z,13.53
2019-05-07T08:18:44.873Z,14.10
2019-05-07T08:23:47.199Z,12.27
2019-05-07T08:28:49.213Z,10.77
2019-05-07T08:33:57.869Z,10.67
2019-05-07T08:39:00.089Z,10.37
2019-05-07T08:44:12.020Z,8.27
2019-05-07T08:49:12.083Z,9.07
2019-05-07T08:54:14.667Z,9.77
2019-05-07T08:59:16.876Z,9.70
2019-05-07T09:04:19.072Z,9.60
2019-05-07T09:09:22.316Z,8.87
2019-05-07T09:14:26.301Z,8.77
2019-05-07T09:19:47.233Z,10.27
2019-05-07T09:24:38.846Z,7.97
2019-05-07T09:36:06.672Z,6.37
2019-05-07T09:41:12.013Z,6.60
2019-05-07T09:46:14.288Z,7.03
2019-05-07T09:51:16.423Z,6.33
2019-05-07T09:56:18.736Z,6.97
2019-05-07T10:01:20.967Z,7.17
2019-05-07T10:06:23.205Z,6.77
2019-05-07T10:11:32.863Z,7.27
2019-05-07T10:17:05.149Z,6.90
2019-05-07T10:22:07.228Z,6.87
2019-05-07T10:27:09.800Z,6.80
2019-05-07T10:32:12.804Z,7.10
2019-05-07T10:37:15.409Z,6.57
2019-05-07T10:42:17.621Z,6.83
2019-05-07T10:47:41.834Z,6.13
2019-05-07T10:52:44.032Z,5.30
2019-05-07T10:57:46.298Z,5.37
2019-05-07T11:02:48.462Z,5.17
2019-05-07T11:07:50.669Z,5.70
2019-05-07T11:12:52.920Z,5.33
2019-05-07T11:18:04.887Z,4.70
2019-05-07T11:23:10.223Z,5.80
2019-05-07T11:28:12.549Z,5.70
2019-05-07T11:33:14.733Z,5.23
2019-05-07T11:38:21.598Z,5.80
2019-05-07T11:43:39.092Z,5.57
2019-05-07T11:48:50.839Z,5.80
2019-05-07T11:54:12.970Z,7.20
2019-05-07T11:59:15.032Z,5.43
2019-05-07T12:04:17.256Z,6.10
2019-05-07T12:09:21.659Z,5.30
2019-05-07T12:14:31.346Z,4.77
2019-05-07T12:19:27.721Z,4.70
2019-05-07T12:24:29.938Z,4.93
2019-05-07T12:29:32.454Z,4.50
2019-05-07T12:35:02.267Z,4.80
2019-05-07T12:40:05.994Z,4.83
2019-05-07T12:45:08.322Z,4.60
2019-05-07T12:50:10.772Z,4.67
2019-05-07T12:55:19.276Z,4.47
2019-05-07T13:01:00.313Z,4.53
2019-05-07T13:06:03.797Z,4.07
2019-05-07T13:11:05.826Z,4.23
2019-05-07T13:16:08.106Z,4.10
2019-05-07T13:21:11.919Z,4.60
2019-05-07T13:26:14.284Z,5.07
2019-05-07T13:31:18.896Z,5.40
2019-05-07T13:36:22.416Z,5.93
2019-05-07T13:41:56.271Z,5.33
2019-05-07T13:47:16.775Z,7.60
2019-05-07T13:52:19.187Z,5.80
2019-05-07T13:57:22.693Z,5.70
2019-05-07T14:02:27.796Z,7.27
2019-05-07T14:07:32.780Z,8.63
2019-05-07T14:12:35.000Z,8.57
2019-05-07T14:17:37.585Z,6.10
2019-05-07T14:22:39.826Z,5.00
2019-05-07T14:27:42.842Z,5.47
2019-05-07T14:33:06.101Z,5.13
2019-05-07T14:38:27.068Z,5.47
2019-05-07T14:43:44.077Z,5.27
2019-05-07T14:48:46.226Z,5.67
2019-05-07T14:53:48.791Z,5.80
2019-05-07T14:58:51.705Z,5.40
2019-05-07T15:03:54.062Z,6.13
2019-05-07T15:08:56.294Z,6.33
2019-05-07T15:13:58.829Z,6.77
2019-05-07T15:19:01.290Z,6.70
2019-05-07T15:24:03.599Z,6.57
2019-05-07T15:29:09.433Z,6.90
2019-05-07T15:34:12.426Z,6.10
2019-05-07T15:39:14.777Z,5.40
2019-05-07T15:44:16.989Z,5.70
2019-05-07T15:49:19.211Z,5.40
2019-05-07T15:54:21.988Z,4.97
2019-05-07T15:59:24.345Z,4.40
2019-05-07T16:04:26.586Z,5.67
2019-05-07T16:09:42.492Z,5.33
2019-05-07T16:14:46.622Z,5.50
2019-05-07T16:19:48.869Z,5.77
2019-05-07T16:24:51.218Z,5.03
2019-05-07T16:29:53.509Z,5.27
2019-05-07T16:34:55.736Z,5.47
2019-05-07T16:39:58.038Z,4.97
2019-05-07T16:45:02.744Z,4.90
2019-05-07T16:50:04.988Z,5.77
2019-05-07T16:55:07.752Z,5.57
2019-05-07T17:00:13.836Z,7.00
2019-05-07T17:05:16.368Z,5.30
2019-05-07T17:10:18.563Z,5.70
2019-05-07T17:15:22.759Z,4.53
2019-05-07T17:20:25.106Z,4.77
2019-05-07T17:25:36.048Z,5.37
2019-05-07T17:30:38.197Z,4.93
2019-05-07T17:35:42.260Z,4.90
2019-05-07T17:40:44.612Z,4.90
2019-05-07T17:45:48.567Z,5.37
2019-05-07T17:51:00.672Z,4.60
2019-05-07T17:56:02.928Z,4.57
2019-05-07T18:01:05.551Z,4.90
2019-05-07T18:06:07.893Z,4.83
2019-05-07T18:11:18.527Z,5.50
2019-05-07T18:16:36.535Z,5.77
2019-05-07T18:21:38.662Z,6.73
2019-05-07T18:26:42.258Z,6.17
2019-05-07T18:31:51.153Z,5.90
2019-05-07T18:36:53.263Z,5.53
2019-05-07T18:41:56.451Z,6.17
2019-05-07T18:46:58.570Z,5.73
2019-05-07T18:52:02.706Z,6.03
2019-05-07T18:57:04.774Z,6.50
2019-05-07T19:02:07.590Z,6.87
2019-05-07T19:07:09.762Z,6.47
2019-05-07T19:12:13.974Z,7.27
2019-05-07T19:17:16.021Z,7.07
2019-05-07T19:22:18.148Z,7.30
2019-05-07T19:27:22.034Z,7.33
2019-05-07T19:32:24.341Z,7.80
2019-05-07T19:37:26.453Z,7.17
2019-05-07T19:42:28.491Z,8.00
2019-05-07T19:47:32.657Z,7.93
2019-05-07T19:52:34.722Z,7.47
2019-05-07T19:57:46.216Z,8.03
2019-05-07T20:02:52.575Z,8.73
2019-05-07T20:07:57.220Z,8.20
2019-05-07T20:12:58.416Z,8.37
2019-05-07T20:18:00.509Z,8.80
2019-05-07T20:23:02.791Z,9.03
2019-05-07T20:28:06.904Z,8.73
2019-05-07T20:33:09.150Z,9.87
2019-05-07T20:38:11.858Z,9.63
2019-05-07T20:43:13.838Z,9.30
2019-05-07T20:48:16.642Z,9.20
2019-05-07T20:53:21.839Z,8.63
2019-05-07T20:58:23.836Z,9.60
2019-05-07T21:03:26.186Z,10.70
2019-05-07T21:08:28.308Z,12.70
2019-05-07T21:13:34.058Z,21.03
2019-05-07T21:18:34.415Z,22.40
2019-05-07T21:23:36.445Z,21.67
2019-05-07T21:28:38.669Z,28.13
2019-05-07T21:33:42.938Z,29.70
2019-05-07T21:38:44.908Z,29.57
2019-05-07T21:43:46.952Z,28.87
2019-05-07T21:48:48.989Z,27.93
2019-05-07T21:54:06.767Z,25.40
2019-05-07T21:59:12.714Z,19.83
2019-05-07T22:04:14.894Z,18.37
2019-05-07T22:09:17.489Z,17.30
2019-05-07T22:14:22.013Z,15.40
2019-05-07T22:19:23.818Z,14.77
2019-05-07T22:24:25.949Z,15.93
2019-05-07T22:29:29.059Z,14.93
2019-05-07T22:34:51.901Z,14.47
2019-05-07T22:39:55.460Z,14.40
2019-05-07T22:44:59.473Z,13.80
2019-05-07T22:50:02.836Z,13.20
2019-05-07T22:55:05.416Z,13.57
2019-05-07T23:00:12.366Z,14.20
2019-05-07T23:05:16.316Z,14.10
2019-05-07T23:10:18.388Z,14.47
2019-05-07T23:15:22.479Z,15.30
2019-05-07T23:20:24.574Z,15.77
2019-05-07T23:25:26.607Z,15.73
2019-05-07T23:30:28.728Z,15.67
2019-05-07T23:35:32.785Z,15.63
2019-05-07T23:41:02.175Z,15.30
2019-05-07T23:46:04.613Z,14.93
2019-05-07T23:51:06.586Z,15.27
2019-05-07T23:56:08.589Z,15.23
